sensor_id;sensor_type;location;lat;lon;timestamp;P1;durP1;ratioP1;P2;durP2;ratioP2
36747;SDS011;22716;51.556;5.080;2023-08-31T00:00:11;11.10;;;4.83;;
36747;SDS011;22716;51.556;5.080;2023-08-31T00:02:41;5.87;;;4.13;;
36747;SDS011;22716;51.556;5.080;2023-08-31T00:05:09;8.95;;;4.85;;
36747;SDS011;22716;51.556;5.080;2023-08-31T00:07:38;8.27;;;5.22;;
36747;SDS011;22716;51.556;5.080;2023-08-31T00:10:07;5.47;;;4.67;;
36747;SDS011;22716;51.556;5.080;2023-08-31T00:12:39;9.25;;;5.22;;
36747;SDS011;22716;51.556;5.080;2023-08-31T00:15:09;7.37;;;5.17;;
36747;SDS011;22716;51.556;5.080;2023-08-31T00:17:38;8.60;;;5.53;;
36747;SDS011;22716;51.556;5.080;2023-08-31T00:20:08;6.80;;;5.67;;
36747;SDS011;22716;51.556;5.080;2023-08-31T00:22:38;9.23;;;5.77;;
36747;SDS011;22716;51.556;5.080;2023-08-31T00:25:07;8.07;;;6.25;;
36747;SDS011;22716;51.556;5.080;2023-08-31T00:27:36;7.25;;;5.28;;
36747;SDS011;22716;51.556;5.080;2023-08-31T00:30:09;9.23;;;5.70;;
36747;SDS011;22716;51.556;5.080;2023-08-31T00:32:40;7.28;;;5.70;;
36747;SDS011;22716;51.556;5.080;2023-08-31T00:35:09;6.57;;;5.60;;
36747;SDS011;22716;51.556;5.080;2023-08-31T00:37:38;9.23;;;6.65;;
36747;SDS011;22716;51.556;5.080;2023-08-31T00:40:07;10.07;;;6.10;;
36747;SDS011;22716;51.556;5.080;2023-08-31T00:42:39;7.03;;;6.07;;
36747;SDS011;22716;51.556;5.080;2023-08-31T00:45:11;11.30;;;7.30;;
36747;SDS011;22716;51.556;5.080;2023-08-31T00:47:40;10.88;;;7.57;;
36747;SDS011;22716;51.556;5.080;2023-08-31T00:50:09;8.00;;;6.53;;
36747;SDS011;22716;51.556;5.080;2023-08-31T00:52:39;9.63;;;6.80;;
36747;SDS011;22716;51.556;5.080;2023-08-31T00:55:09;9.02;;;6.78;;
36747;SDS011;22716;51.556;5.080;2023-08-31T00:57:38;10.47;;;6.77;;
36747;SDS011;22716;51.556;5.080;2023-08-31T01:00:11;9.25;;;6.90;;
36747;SDS011;22716;51.556;5.080;2023-08-31T01:02:43;7.63;;;6.20;;
36747;SDS011;22716;51.556;5.080;2023-08-31T01:05:23;8.77;;;6.50;;
36747;SDS011;22716;51.556;5.080;2023-08-31T01:07:59;11.65;;;6.65;;
36747;SDS011;22716;51.556;5.080;2023-08-31T01:10:36;9.53;;;5.77;;
36747;SDS011;22716;51.556;5.080;2023-08-31T01:13:14;10.13;;;6.80;;
36747;SDS011;22716;51.556;5.080;2023-08-31T01:15:50;12.00;;;7.15;;
36747;SDS011;22716;51.556;5.080;2023-08-31T01:18:23;8.93;;;6.15;;
36747;SDS011;22716;51.556;5.080;2023-08-31T01:20:55;14.55;;;6.55;;
36747;SDS011;22716;51.556;5.080;2023-08-31T01:23:31;9.75;;;6.53;;
36747;SDS011;22716;51.556;5.080;2023-08-31T01:26:15;8.57;;;6.43;;
36747;SDS011;22716;51.556;5.080;2023-08-31T01:28:44;8.53;;;6.23;;
36747;SDS011;22716;51.556;5.080;2023-08-31T01:31:13;8.30;;;6.93;;
36747;SDS011;22716;51.556;5.080;2023-08-31T01:33:42;13.95;;;6.75;;
36747;SDS011;22716;51.556;5.080;2023-08-31T01:36:14;9.63;;;6.03;;
36747;SDS011;22716;51.556;5.080;2023-08-31T01:38:54;11.40;;;7.47;;
36747;SDS011;22716;51.556;5.080;2023-08-31T01:41:26;10.63;;;6.13;;
36747;SDS011;22716;51.556;5.080;2023-08-31T01:43:59;11.68;;;7.38;;
36747;SDS011;22716;51.556;5.080;2023-08-31T01:46:28;10.00;;;6.63;;
36747;SDS011;22716;51.556;5.080;2023-08-31T01:48:58;11.25;;;6.85;;
36747;SDS011;22716;51.556;5.080;2023-08-31T01:51:27;8.52;;;6.38;;
36747;SDS011;22716;51.556;5.080;2023-08-31T01:53:58;7.75;;;6.45;;
36747;SDS011;22716;51.556;5.080;2023-08-31T01:56:27;9.60;;;7.27;;
36747;SDS011;22716;51.556;5.080;2023-08-31T01:58:55;9.02;;;6.57;;
36747;SDS011;22716;51.556;5.080;2023-08-31T02:01:24;10.97;;;7.10;;
36747;SDS011;22716;51.556;5.080;2023-08-31T02:03:52;10.90;;;6.87;;
36747;SDS011;22716;51.556;5.080;2023-08-31T02:06:21;11.00;;;6.70;;
36747;SDS011;22716;51.556;5.080;2023-08-31T02:08:50;8.93;;;6.50;;
36747;SDS011;22716;51.556;5.080;2023-08-31T02:11:21;7.67;;;5.97;;
36747;SDS011;22716;51.556;5.080;2023-08-31T02:13:49;11.77;;;6.43;;
36747;SDS011;22716;51.556;5.080;2023-08-31T02:16:18;7.60;;;6.80;;
36747;SDS011;22716;51.556;5.080;2023-08-31T02:18:46;13.00;;;7.50;;
36747;SDS011;22716;51.556;5.080;2023-08-31T02:21:15;8.77;;;6.70;;
36747;SDS011;22716;51.556;5.080;2023-08-31T02:23:45;9.73;;;7.53;;
36747;SDS011;22716;51.556;5.080;2023-08-31T02:26:13;7.63;;;6.63;;
36747;SDS011;22716;51.556;5.080;2023-08-31T02:28:45;11.07;;;7.32;;
36747;SDS011;22716;51.556;5.080;2023-08-31T02:31:13;8.07;;;6.72;;
36747;SDS011;22716;51.556;5.080;2023-08-31T02:33:42;10.38;;;6.70;;
36747;SDS011;22716;51.556;5.080;2023-08-31T02:36:11;12.27;;;7.90;;
36747;SDS011;22716;51.556;5.080;2023-08-31T02:38:39;12.75;;;7.25;;
36747;SDS011;22716;51.556;5.080;2023-08-31T02:41:08;10.83;;;7.63;;
36747;SDS011;22716;51.556;5.080;2023-08-31T02:43:36;8.45;;;7.10;;
36747;SDS011;22716;51.556;5.080;2023-08-31T02:46:08;10.13;;;7.35;;
36747;SDS011;22716;51.556;5.080;2023-08-31T02:48:37;8.77;;;7.17;;
36747;SDS011;22716;51.556;5.080;2023-08-31T02:51:06;11.55;;;8.20;;
36747;SDS011;22716;51.556;5.080;2023-08-31T02:53:34;11.23;;;6.77;;
36747;SDS011;22716;51.556;5.080;2023-08-31T02:56:03;10.10;;;6.68;;
36747;SDS011;22716;51.556;5.080;2023-08-31T02:58:32;10.57;;;8.10;;
36747;SDS011;22716;51.556;5.080;2023-08-31T03:01:10;9.27;;;6.85;;
36747;SDS011;22716;51.556;5.080;2023-08-31T03:03:41;11.95;;;7.95;;
36747;SDS011;22716;51.556;5.080;2023-08-31T03:06:11;10.50;;;8.02;;
36747;SDS011;22716;51.556;5.080;2023-08-31T03:08:40;13.85;;;7.80;;
36747;SDS011;22716;51.556;5.080;2023-08-31T03:11:09;11.32;;;7.53;;
36747;SDS011;22716;51.556;5.080;2023-08-31T03:13:39;12.95;;;8.55;;
36747;SDS011;22716;51.556;5.080;2023-08-31T03:16:10;12.07;;;7.80;;
36747;SDS011;22716;51.556;5.080;2023-08-31T03:18:39;11.70;;;8.45;;
36747;SDS011;22716;51.556;5.080;2023-08-31T03:21:07;11.77;;;8.15;;
36747;SDS011;22716;51.556;5.080;2023-08-31T03:23:36;13.60;;;8.50;;
36747;SDS011;22716;51.556;5.080;2023-08-31T03:26:07;10.95;;;7.95;;
36747;SDS011;22716;51.556;5.080;2023-08-31T03:28:36;13.73;;;9.13;;
36747;SDS011;22716;51.556;5.080;2023-08-31T03:31:06;13.50;;;8.88;;
36747;SDS011;22716;51.556;5.080;2023-08-31T03:33:37;13.38;;;9.20;;
36747;SDS011;22716;51.556;5.080;2023-08-31T03:36:06;13.05;;;8.77;;
36747;SDS011;22716;51.556;5.080;2023-08-31T03:38:35;19.90;;;9.77;;
36747;SDS011;22716;51.556;5.080;2023-08-31T03:41:05;11.45;;;8.80;;
36747;SDS011;22716;51.556;5.080;2023-08-31T03:43:34;9.20;;;7.82;;
36747;SDS011;22716;51.556;5.080;2023-08-31T03:46:02;11.73;;;8.45;;
36747;SDS011;22716;51.556;5.080;2023-08-31T03:48:31;18.88;;;9.43;;
36747;SDS011;22716;51.556;5.080;2023-08-31T03:51:02;11.93;;;8.45;;
36747;SDS011;22716;51.556;5.080;2023-08-31T03:53:31;14.40;;;9.73;;
36747;SDS011;22716;51.556;5.080;2023-08-31T03:55:59;12.70;;;9.18;;
36747;SDS011;22716;51.556;5.080;2023-08-31T03:58:29;9.95;;;8.02;;
36747;SDS011;22716;51.556;5.080;2023-08-31T04:00:58;11.30;;;8.65;;
36747;SDS011;22716;51.556;5.080;2023-08-31T04:03:28;12.93;;;9.80;;
36747;SDS011;22716;51.556;5.080;2023-08-31T04:05:56;14.38;;;9.02;;
36747;SDS011;22716;51.556;5.080;2023-08-31T04:08:28;18.10;;;9.77;;
36747;SDS011;22716;51.556;5.080;2023-08-31T04:10:56;12.40;;;9.05;;
36747;SDS011;22716;51.556;5.080;2023-08-31T04:13:25;12.90;;;8.77;;
36747;SDS011;22716;51.556;5.080;2023-08-31T04:15:53;14.48;;;8.75;;
36747;SDS011;22716;51.556;5.080;2023-08-31T04:18:22;10.25;;;8.43;;
36747;SDS011;22716;51.556;5.080;2023-08-31T04:20:52;11.80;;;8.33;;
36747;SDS011;22716;51.556;5.080;2023-08-31T04:23:24;12.10;;;9.10;;
36747;SDS011;22716;51.556;5.080;2023-08-31T04:25:55;11.52;;;8.82;;
36747;SDS011;22716;51.556;5.080;2023-08-31T04:28:24;11.27;;;8.57;;
36747;SDS011;22716;51.556;5.080;2023-08-31T04:30:53;15.77;;;8.35;;
36747;SDS011;22716;51.556;5.080;2023-08-31T04:33:22;12.43;;;8.02;;
36747;SDS011;22716;51.556;5.080;2023-08-31T04:35:52;12.10;;;8.77;;
36747;SDS011;22716;51.556;5.080;2023-08-31T04:38:20;14.10;;;7.40;;
36747;SDS011;22716;51.556;5.080;2023-08-31T04:40:49;11.82;;;8.13;;
36747;SDS011;22716;51.556;5.080;2023-08-31T04:43:20;11.35;;;7.75;;
36747;SDS011;22716;51.556;5.080;2023-08-31T04:45:48;12.18;;;9.02;;
36747;SDS011;22716;51.556;5.080;2023-08-31T04:48:17;15.20;;;8.30;;
36747;SDS011;22716;51.556;5.080;2023-08-31T04:50:45;10.88;;;8.00;;
36747;SDS011;22716;51.556;5.080;2023-08-31T04:53:14;15.98;;;9.02;;
36747;SDS011;22716;51.556;5.080;2023-08-31T04:55:43;12.03;;;8.90;;
36747;SDS011;22716;51.556;5.080;2023-08-31T04:58:11;12.73;;;8.45;;
36747;SDS011;22716;51.556;5.080;2023-08-31T05:00:42;16.88;;;9.65;;
36747;SDS011;22716;51.556;5.080;2023-08-31T05:03:12;13.37;;;8.07;;
36747;SDS011;22716;51.556;5.080;2023-08-31T05:05:41;13.65;;;7.65;;
36747;SDS011;22716;51.556;5.080;2023-08-31T05:08:09;10.18;;;7.80;;
36747;SDS011;22716;51.556;5.080;2023-08-31T05:10:38;10.45;;;7.00;;
36747;SDS011;22716;51.556;5.080;2023-08-31T05:13:07;12.70;;;8.02;;
36747;SDS011;22716;51.556;5.080;2023-08-31T05:15:36;13.73;;;7.50;;
36747;SDS011;22716;51.556;5.080;2023-08-31T05:18:07;9.95;;;7.57;;
36747;SDS011;22716;51.556;5.080;2023-08-31T05:20:36;10.60;;;6.68;;
36747;SDS011;22716;51.556;5.080;2023-08-31T05:23:05;8.65;;;6.85;;
36747;SDS011;22716;51.556;5.080;2023-08-31T05:25:33;10.85;;;8.82;;
36747;SDS011;22716;51.556;5.080;2023-08-31T05:28:02;13.00;;;7.32;;
36747;SDS011;22716;51.556;5.080;2023-08-31T05:30:31;9.63;;;6.80;;
36747;SDS011;22716;51.556;5.080;2023-08-31T05:33:00;13.43;;;7.23;;
36747;SDS011;22716;51.556;5.080;2023-08-31T05:35:31;10.15;;;6.60;;
36747;SDS011;22716;51.556;5.080;2023-08-31T05:38:00;10.52;;;7.90;;
36747;SDS011;22716;51.556;5.080;2023-08-31T05:40:28;9.88;;;7.07;;
36747;SDS011;22716;51.556;5.080;2023-08-31T05:42:57;12.07;;;7.13;;
36747;SDS011;22716;51.556;5.080;2023-08-31T05:45:25;12.80;;;6.75;;
36747;SDS011;22716;51.556;5.080;2023-08-31T05:47:54;11.48;;;6.97;;
36747;SDS011;22716;51.556;5.080;2023-08-31T05:50:22;10.20;;;6.97;;
36747;SDS011;22716;51.556;5.080;2023-08-31T05:52:53;12.25;;;7.07;;
36747;SDS011;22716;51.556;5.080;2023-08-31T05:55:23;11.00;;;6.73;;
36747;SDS011;22716;51.556;5.080;2023-08-31T05:57:51;12.27;;;7.33;;
36747;SDS011;22716;51.556;5.080;2023-08-31T06:00:20;12.10;;;6.67;;
36747;SDS011;22716;51.556;5.080;2023-08-31T06:02:49;11.00;;;7.15;;
36747;SDS011;22716;51.556;5.080;2023-08-31T06:05:18;11.73;;;6.65;;
36747;SDS011;22716;51.556;5.080;2023-08-31T06:07:46;11.02;;;7.57;;
36747;SDS011;22716;51.556;5.080;2023-08-31T06:10:18;9.70;;;6.57;;
36747;SDS011;22716;51.556;5.080;2023-08-31T06:12:48;10.80;;;6.18;;
36747;SDS011;22716;51.556;5.080;2023-08-31T06:15:17;10.00;;;6.53;;
36747;SDS011;22716;51.556;5.080;2023-08-31T06:17:46;7.22;;;6.07;;
36747;SDS011;22716;51.556;5.080;2023-08-31T06:20:14;9.10;;;6.25;;
36747;SDS011;22716;51.556;5.080;2023-08-31T06:22:43;7.63;;;5.80;;
36747;SDS011;22716;51.556;5.080;2023-08-31T06:25:11;12.10;;;6.40;;
36747;SDS011;22716;51.556;5.080;2023-08-31T06:27:44;12.57;;;5.97;;
36747;SDS011;22716;51.556;5.080;2023-08-31T06:30:13;8.43;;;6.07;;
36747;SDS011;22716;51.556;5.080;2023-08-31T06:32:44;10.93;;;6.10;;
36747;SDS011;22716;51.556;5.080;2023-08-31T06:35:15;10.50;;;6.13;;
36747;SDS011;22716;51.556;5.080;2023-08-31T06:37:45;7.63;;;5.73;;
36747;SDS011;22716;51.556;5.080;2023-08-31T06:40:15;11.87;;;5.73;;
36747;SDS011;22716;51.556;5.080;2023-08-31T06:42:47;9.27;;;5.88;;
36747;SDS011;22716;51.556;5.080;2023-08-31T06:45:15;10.83;;;6.00;;
36747;SDS011;22716;51.556;5.080;2023-08-31T06:47:44;13.87;;;6.07;;
36747;SDS011;22716;51.556;5.080;2023-08-31T06:50:12;8.73;;;5.87;;
36747;SDS011;22716;51.556;5.080;2023-08-31T06:52:41;11.60;;;6.97;;
36747;SDS011;22716;51.556;5.080;2023-08-31T06:55:12;7.57;;;5.10;;
36747;SDS011;22716;51.556;5.080;2023-08-31T06:57:41;9.27;;;5.27;;
36747;SDS011;22716;51.556;5.080;2023-08-31T07:00:13;10.70;;;6.22;;
36747;SDS011;22716;51.556;5.080;2023-08-31T07:02:43;13.73;;;6.10;;
36747;SDS011;22716;51.556;5.080;2023-08-31T07:05:12;9.90;;;5.73;;
36747;SDS011;22716;51.556;5.080;2023-08-31T07:07:41;10.93;;;5.50;;
36747;SDS011;22716;51.556;5.080;2023-08-31T07:10:09;11.60;;;6.30;;
36747;SDS011;22716;51.556;5.080;2023-08-31T07:12:38;10.67;;;6.70;;
36747;SDS011;22716;51.556;5.080;2023-08-31T07:15:07;9.83;;;5.50;;
36747;SDS011;22716;51.556;5.080;2023-08-31T07:17:39;12.37;;;6.27;;
36747;SDS011;22716;51.556;5.080;2023-08-31T07:20:08;15.97;;;5.93;;
36747;SDS011;22716;51.556;5.080;2023-08-31T07:22:38;8.50;;;5.13;;
36747;SDS011;22716;51.556;5.080;2023-08-31T07:25:07;9.47;;;5.33;;
36747;SDS011;22716;51.556;5.080;2023-08-31T07:27:37;8.48;;;5.60;;
36747;SDS011;22716;51.556;5.080;2023-08-31T07:30:06;9.20;;;5.90;;
36747;SDS011;22716;51.556;5.080;2023-08-31T07:32:35;11.50;;;6.57;;
36747;SDS011;22716;51.556;5.080;2023-08-31T07:35:07;12.53;;;6.33;;
36747;SDS011;22716;51.556;5.080;2023-08-31T07:37:36;12.20;;;5.47;;
36747;SDS011;22716;51.556;5.080;2023-08-31T07:40:05;9.10;;;6.27;;
36747;SDS011;22716;51.556;5.080;2023-08-31T07:42:36;8.90;;;5.50;;
36747;SDS011;22716;51.556;5.080;2023-08-31T07:45:05;12.53;;;6.30;;
36747;SDS011;22716;51.556;5.080;2023-08-31T07:47:35;8.77;;;6.50;;
36747;SDS011;22716;51.556;5.080;2023-08-31T07:50:04;18.63;;;7.32;;
36747;SDS011;22716;51.556;5.080;2023-08-31T07:52:37;12.35;;;5.97;;
36747;SDS011;22716;51.556;5.080;2023-08-31T07:55:06;12.97;;;7.37;;
36747;SDS011;22716;51.556;5.080;2023-08-31T07:57:35;11.00;;;6.80;;
36747;SDS011;22716;51.556;5.080;2023-08-31T08:00:05;14.20;;;6.80;;
36747;SDS011;22716;51.556;5.080;2023-08-31T08:02:34;11.23;;;7.07;;
36747;SDS011;22716;51.556;5.080;2023-08-31T08:05:03;13.30;;;7.07;;
36747;SDS011;22716;51.556;5.080;2023-08-31T08:07:35;9.87;;;6.53;;
36747;SDS011;22716;51.556;5.080;2023-08-31T08:10:04;10.15;;;6.55;;
36747;SDS011;22716;51.556;5.080;2023-08-31T08:12:37;12.93;;;7.30;;
36747;SDS011;22716;51.556;5.080;2023-08-31T08:15:08;12.97;;;7.83;;
36747;SDS011;22716;51.556;5.080;2023-08-31T08:17:38;10.93;;;6.50;;
36747;SDS011;22716;51.556;5.080;2023-08-31T08:20:10;9.53;;;6.07;;
36747;SDS011;22716;51.556;5.080;2023-08-31T08:22:39;10.97;;;7.20;;
36747;SDS011;22716;51.556;5.080;2023-08-31T08:25:08;12.83;;;7.60;;
36747;SDS011;22716;51.556;5.080;2023-08-31T08:27:37;14.48;;;6.85;;
36747;SDS011;22716;51.556;5.080;2023-08-31T08:30:06;9.57;;;7.13;;
36747;SDS011;22716;51.556;5.080;2023-08-31T08:32:35;13.47;;;7.47;;
36747;SDS011;22716;51.556;5.080;2023-08-31T08:35:04;11.20;;;6.63;;
36747;SDS011;22716;51.556;5.080;2023-08-31T08:37:36;11.40;;;6.77;;
36747;SDS011;22716;51.556;5.080;2023-08-31T08:40:05;10.23;;;6.68;;
36747;SDS011;22716;51.556;5.080;2023-08-31T08:42:36;17.67;;;7.00;;
36747;SDS011;22716;51.556;5.080;2023-08-31T08:45:12;11.82;;;6.50;;
36747;SDS011;22716;51.556;5.080;2023-08-31T08:47:43;9.30;;;5.93;;
36747;SDS011;22716;51.556;5.080;2023-08-31T08:50:12;12.97;;;7.07;;
36747;SDS011;22716;51.556;5.080;2023-08-31T08:52:44;9.23;;;6.53;;
36747;SDS011;22716;51.556;5.080;2023-08-31T08:55:14;14.20;;;6.93;;
36747;SDS011;22716;51.556;5.080;2023-08-31T08:57:44;10.32;;;6.57;;
36747;SDS011;22716;51.556;5.080;2023-08-31T09:00:13;13.55;;;7.13;;
36747;SDS011;22716;51.556;5.080;2023-08-31T09:02:43;10.70;;;6.60;;
36747;SDS011;22716;51.556;5.080;2023-08-31T09:05:12;11.13;;;6.97;;
36747;SDS011;22716;51.556;5.080;2023-08-31T09:10:36;9.77;;;6.28;;
36747;SDS011;22716;51.556;5.080;2023-08-31T09:13:06;9.93;;;4.97;;
36747;SDS011;22716;51.556;5.080;2023-08-31T09:15:38;6.75;;;5.45;;
36747;SDS011;22716;51.556;5.080;2023-08-31T09:18:08;9.45;;;6.35;;
36747;SDS011;22716;51.556;5.080;2023-08-31T09:20:43;7.07;;;4.93;;
36747;SDS011;22716;51.556;5.080;2023-08-31T09:23:15;7.87;;;5.63;;
36747;SDS011;22716;51.556;5.080;2023-08-31T09:25:45;13.15;;;6.22;;
36747;SDS011;22716;51.556;5.080;2023-08-31T09:28:15;10.57;;;5.75;;
36747;SDS011;22716;51.556;5.080;2023-08-31T09:30:44;7.17;;;5.07;;
36747;SDS011;22716;51.556;5.080;2023-08-31T09:33:15;9.95;;;5.70;;
36747;SDS011;22716;51.556;5.080;2023-08-31T09:35:47;17.75;;;5.18;;
36747;SDS011;22716;51.556;5.080;2023-08-31T09:38:20;10.80;;;4.43;;
36747;SDS011;22716;51.556;5.080;2023-08-31T09:40:49;8.60;;;5.05;;
36747;SDS011;22716;51.556;5.080;2023-08-31T09:43:21;13.38;;;4.88;;
36747;SDS011;22716;51.556;5.080;2023-08-31T09:45:51;10.25;;;5.10;;
36747;SDS011;22716;51.556;5.080;2023-08-31T09:48:21;8.02;;;4.72;;
36747;SDS011;22716;51.556;5.080;2023-08-31T09:50:51;9.07;;;4.57;;
36747;SDS011;22716;51.556;5.080;2023-08-31T09:53:23;7.43;;;4.10;;
36747;SDS011;22716;51.556;5.080;2023-08-31T09:55:52;7.75;;;4.07;;
36747;SDS011;22716;51.556;5.080;2023-08-31T09:58:22;6.53;;;4.63;;
36747;SDS011;22716;51.556;5.080;2023-08-31T10:00:52;11.40;;;4.80;;
36747;SDS011;22716;51.556;5.080;2023-08-31T10:03:21;13.18;;;4.15;;
36747;SDS011;22716;51.556;5.080;2023-08-31T10:05:49;12.10;;;4.47;;
36747;SDS011;22716;51.556;5.080;2023-08-31T10:08:19;7.82;;;4.68;;
36747;SDS011;22716;51.556;5.080;2023-08-31T10:10:52;10.65;;;3.78;;
36747;SDS011;22716;51.556;5.080;2023-08-31T10:13:21;6.55;;;3.67;;
36747;SDS011;22716;51.556;5.080;2023-08-31T10:15:52;6.50;;;3.77;;
36747;SDS011;22716;51.556;5.080;2023-08-31T10:18:21;9.73;;;4.17;;
36747;SDS011;22716;51.556;5.080;2023-08-31T10:20:52;6.50;;;3.90;;
36747;SDS011;22716;51.556;5.080;2023-08-31T10:23:20;5.47;;;3.70;;
36747;SDS011;22716;51.556;5.080;2023-08-31T10:26:02;11.27;;;4.28;;
36747;SDS011;22716;51.556;5.080;2023-08-31T10:31:10;6.43;;;3.88;;
36747;SDS011;22716;51.556;5.080;2023-08-31T10:33:44;7.10;;;4.38;;
36747;SDS011;22716;51.556;5.080;2023-08-31T10:36:14;5.88;;;3.47;;
36747;SDS011;22716;51.556;5.080;2023-08-31T10:38:45;6.22;;;2.08;;
36747;SDS011;22716;51.556;5.080;2023-08-31T10:41:21;7.80;;;2.97;;
36747;SDS011;22716;51.556;5.080;2023-08-31T10:43:51;7.33;;;2.30;;
36747;SDS011;22716;51.556;5.080;2023-08-31T10:46:32;5.40;;;2.65;;
36747;SDS011;22716;51.556;5.080;2023-08-31T10:49:12;6.05;;;2.25;;
36747;SDS011;22716;51.556;5.080;2023-08-31T10:51:43;4.20;;;3.15;;
36747;SDS011;22716;51.556;5.080;2023-08-31T10:54:13;6.18;;;3.00;;
36747;SDS011;22716;51.556;5.080;2023-08-31T10:57:04;7.13;;;3.58;;
36747;SDS011;22716;51.556;5.080;2023-08-31T10:59:43;7.85;;;3.38;;
36747;SDS011;22716;51.556;5.080;2023-08-31T11:02:27;6.63;;;2.97;;
36747;SDS011;22716;51.556;5.080;2023-08-31T11:05:00;8.90;;;2.75;;
36747;SDS011;22716;51.556;5.080;2023-08-31T11:07:33;5.20;;;2.90;;
36747;SDS011;22716;51.556;5.080;2023-08-31T11:10:07;8.15;;;3.13;;
36747;SDS011;22716;51.556;5.080;2023-08-31T11:15:10;12.40;;;3.07;;
36747;SDS011;22716;51.556;5.080;2023-08-31T11:17:40;6.43;;;2.60;;
36747;SDS011;22716;51.556;5.080;2023-08-31T11:20:13;4.43;;;2.10;;
36747;SDS011;22716;51.556;5.080;2023-08-31T11:22:43;6.65;;;2.38;;
36747;SDS011;22716;51.556;5.080;2023-08-31T11:25:15;4.03;;;1.75;;
36747;SDS011;22716;51.556;5.080;2023-08-31T11:27:57;9.13;;;3.25;;
36747;SDS011;22716;51.556;5.080;2023-08-31T11:30:29;8.20;;;3.47;;
36747;SDS011;22716;51.556;5.080;2023-08-31T11:33:01;7.47;;;2.90;;
36747;SDS011;22716;51.556;5.080;2023-08-31T11:35:31;5.00;;;2.15;;
36747;SDS011;22716;51.556;5.080;2023-08-31T11:38:02;8.07;;;2.60;;
36747;SDS011;22716;51.556;5.080;2023-08-31T11:40:31;4.72;;;2.03;;
36747;SDS011;22716;51.556;5.080;2023-08-31T11:43:02;7.82;;;2.83;;
36747;SDS011;22716;51.556;5.080;2023-08-31T11:45:33;4.63;;;2.00;;
36747;SDS011;22716;51.556;5.080;2023-08-31T11:48:04;4.70;;;2.00;;
36747;SDS011;22716;51.556;5.080;2023-08-31T11:50:34;4.28;;;2.20;;
36747;SDS011;22716;51.556;5.080;2023-08-31T11:53:04;9.55;;;2.47;;
36747;SDS011;22716;51.556;5.080;2023-08-31T11:55:33;4.90;;;2.55;;
36747;SDS011;22716;51.556;5.080;2023-08-31T11:58:04;8.30;;;3.27;;
36747;SDS011;22716;51.556;5.080;2023-08-31T12:00:36;6.10;;;2.70;;
36747;SDS011;22716;51.556;5.080;2023-08-31T12:03:04;2.25;;;1.83;;
36747;SDS011;22716;51.556;5.080;2023-08-31T12:05:46;10.27;;;2.55;;
36747;SDS011;22716;51.556;5.080;2023-08-31T12:08:23;4.93;;;3.08;;
36747;SDS011;22716;51.556;5.080;2023-08-31T12:10:53;10.30;;;2.88;;
36747;SDS011;22716;51.556;5.080;2023-08-31T12:13:25;4.80;;;2.08;;
36747;SDS011;22716;51.556;5.080;2023-08-31T12:15:54;5.63;;;2.00;;
36747;SDS011;22716;51.556;5.080;2023-08-31T12:18:23;5.72;;;2.30;;
36747;SDS011;22716;51.556;5.080;2023-08-31T12:20:52;4.97;;;2.43;;
36747;SDS011;22716;51.556;5.080;2023-08-31T12:23:22;5.97;;;2.80;;
36747;SDS011;22716;51.556;5.080;2023-08-31T12:25:51;5.47;;;2.30;;
36747;SDS011;22716;51.556;5.080;2023-08-31T12:28:22;5.83;;;2.33;;
36747;SDS011;22716;51.556;5.080;2023-08-31T12:30:54;4.63;;;2.22;;
36747;SDS011;22716;51.556;5.080;2023-08-31T12:33:23;7.28;;;3.03;;
36747;SDS011;22716;51.556;5.080;2023-08-31T12:35:52;6.23;;;3.40;;
36747;SDS011;22716;51.556;5.080;2023-08-31T12:38:21;5.37;;;3.83;;
36747;SDS011;22716;51.556;5.080;2023-08-31T12:40:50;4.17;;;3.07;;
36747;SDS011;22716;51.556;5.080;2023-08-31T12:43:18;5.03;;;2.50;;
36747;SDS011;22716;51.556;5.080;2023-08-31T12:45:49;5.80;;;3.10;;
36747;SDS011;22716;51.556;5.080;2023-08-31T12:48:18;8.00;;;3.30;;
36747;SDS011;22716;51.556;5.080;2023-08-31T12:50:46;4.87;;;3.53;;
36747;SDS011;22716;51.556;5.080;2023-08-31T12:53:16;7.43;;;3.53;;
36747;SDS011;22716;51.556;5.080;2023-08-31T12:55:44;6.00;;;3.93;;
36747;SDS011;22716;51.556;5.080;2023-08-31T12:58:13;3.87;;;2.80;;
36747;SDS011;22716;51.556;5.080;2023-08-31T13:00:41;5.40;;;3.83;;
36747;SDS011;22716;51.556;5.080;2023-08-31T13:03:15;8.37;;;3.30;;
36747;SDS011;22716;51.556;5.080;2023-08-31T13:05:45;6.30;;;3.23;;
36747;SDS011;22716;51.556;5.080;2023-08-31T13:08:14;4.90;;;2.78;;
36747;SDS011;22716;51.556;5.080;2023-08-31T13:10:42;6.03;;;3.97;;
36747;SDS011;22716;51.556;5.080;2023-08-31T13:13:11;11.18;;;2.60;;
36747;SDS011;22716;51.556;5.080;2023-08-31T13:15:40;6.88;;;2.78;;
36747;SDS011;22716;51.556;5.080;2023-08-31T13:18:10;4.20;;;2.47;;
36747;SDS011;22716;51.556;5.080;2023-08-31T13:20:48;6.35;;;3.00;;
36747;SDS011;22716;51.556;5.080;2023-08-31T13:23:17;9.73;;;5.72;;
36747;SDS011;22716;51.556;5.080;2023-08-31T13:25:45;6.85;;;4.88;;
36747;SDS011;22716;51.556;5.080;2023-08-31T13:28:14;6.65;;;2.88;;
36747;SDS011;22716;51.556;5.080;2023-08-31T13:30:43;5.93;;;3.50;;
36747;SDS011;22716;51.556;5.080;2023-08-31T13:33:11;8.57;;;3.85;;
36747;SDS011;22716;51.556;5.080;2023-08-31T13:35:44;9.80;;;5.25;;
36747;SDS011;22716;51.556;5.080;2023-08-31T13:38:13;6.80;;;4.60;;
36747;SDS011;22716;51.556;5.080;2023-08-31T13:40:42;9.77;;;5.57;;
36747;SDS011;22716;51.556;5.080;2023-08-31T13:43:11;9.40;;;4.50;;
36747;SDS011;22716;51.556;5.080;2023-08-31T13:45:40;7.03;;;3.72;;
36747;SDS011;22716;51.556;5.080;2023-08-31T13:48:08;8.87;;;5.87;;
36747;SDS011;22716;51.556;5.080;2023-08-31T13:50:37;5.97;;;4.40;;
36747;SDS011;22716;51.556;5.080;2023-08-31T13:53:08;7.45;;;5.22;;
36747;SDS011;22716;51.556;5.080;2023-08-31T13:55:37;8.90;;;5.95;;
36747;SDS011;22716;51.556;5.080;2023-08-31T13:58:06;9.48;;;5.38;;
36747;SDS011;22716;51.556;5.080;2023-08-31T14:00:36;16.05;;;7.63;;
36747;SDS011;22716;51.556;5.080;2023-08-31T14:03:04;14.38;;;6.57;;
36747;SDS011;22716;51.556;5.080;2023-08-31T14:05:33;16.23;;;10.95;;
36747;SDS011;22716;51.556;5.080;2023-08-31T14:08:02;11.90;;;5.00;;
36747;SDS011;22716;51.556;5.080;2023-08-31T14:10:33;10.00;;;4.67;;
36747;SDS011;22716;51.556;5.080;2023-08-31T14:13:02;6.28;;;3.80;;
36747;SDS011;22716;51.556;5.080;2023-08-31T14:15:30;5.13;;;3.77;;
36747;SDS011;22716;51.556;5.080;2023-08-31T14:17:59;7.03;;;3.93;;
36747;SDS011;22716;51.556;5.080;2023-08-31T14:20:29;5.70;;;3.95;;
36747;SDS011;22716;51.556;5.080;2023-08-31T14:22:58;7.95;;;3.75;;
36747;SDS011;22716;51.556;5.080;2023-08-31T14:25:26;11.73;;;4.25;;
36747;SDS011;22716;51.556;5.080;2023-08-31T14:27:57;8.55;;;3.78;;
36747;SDS011;22716;51.556;5.080;2023-08-31T14:30:26;5.97;;;3.92;;
36747;SDS011;22716;51.556;5.080;2023-08-31T14:32:54;6.55;;;3.90;;
36747;SDS011;22716;51.556;5.080;2023-08-31T14:35:23;8.65;;;5.20;;
36747;SDS011;22716;51.556;5.080;2023-08-31T14:37:52;9.65;;;5.10;;
36747;SDS011;22716;51.556;5.080;2023-08-31T14:40:20;8.35;;;4.38;;
36747;SDS011;22716;51.556;5.080;2023-08-31T14:42:49;6.50;;;3.15;;
36747;SDS011;22716;51.556;5.080;2023-08-31T14:45:20;8.23;;;4.17;;
36747;SDS011;22716;51.556;5.080;2023-08-31T14:47:48;9.52;;;4.50;;
36747;SDS011;22716;51.556;5.080;2023-08-31T14:50:17;7.95;;;3.22;;
36747;SDS011;22716;51.556;5.080;2023-08-31T14:52:47;8.15;;;4.00;;
36747;SDS011;22716;51.556;5.080;2023-08-31T14:55:15;4.82;;;3.15;;
36747;SDS011;22716;51.556;5.080;2023-08-31T14:57:44;7.03;;;3.53;;
36747;SDS011;22716;51.556;5.080;2023-08-31T15:00:13;7.87;;;3.40;;
36747;SDS011;22716;51.556;5.080;2023-08-31T15:02:44;5.93;;;3.45;;
36747;SDS011;22716;51.556;5.080;2023-08-31T15:05:14;9.20;;;3.65;;